sensor_id;sensor_type;location;lat;lon;timestamp;temperature;humidity
4874;DHT22;2451;49.970;9.068;2024-02-23T00:01:28;9.00;99.90
4874;DHT22;2451;49.970;9.068;2024-02-23T00:03:53;8.90;99.90
4874;DHT22;2451;49.970;9.068;2024-02-23T00:06:20;9.00;99.90
4874;DHT22;2451;49.970;9.068;2024-02-23T00:08:46;9.00;99.90
4874;DHT22;2451;49.970;9.068;2024-02-23T00:11:11;8.90;99.90
4874;DHT22;2451;49.970;9.068;2024-02-23T00:13:37;8.90;99.90
4874;DHT22;2451;49.970;9.068;2024-02-23T00:16:03;8.80;99.90
4874;DHT22;2451;49.970;9.068;2024-02-23T00:18:28;8.80;99.90
4874;DHT22;2451;49.970;9.068;2024-02-23T00:20:54;8.80;99.90
4874;DHT22;2451;49.970;9.068;2024-02-23T00:23:19;8.80;99.90
4874;DHT22;2451;49.970;9.068;2024-02-23T00:25:45;8.80;99.90
4874;DHT22;2451;49.970;9.068;2024-02-23T00:28:10;8.80;99.90
4874;DHT22;2451;49.970;9.068;2024-02-23T00:30:36;8.70;99.90
4874;DHT22;2451;49.970;9.068;2024-02-23T00:33:01;8.70;99.90
4874;DHT22;2451;49.970;9.068;2024-02-23T00:35:27;8.70;99.90
4874;DHT22;2451;49.970;9.068;2024-02-23T00:37:52;8.60;99.90
4874;DHT22;2451;49.970;9.068;2024-02-23T00:40:18;8.60;99.90
4874;DHT22;2451;49.970;9.068;2024-02-23T00:42:43;8.60;99.90
4874;DHT22;2451;49.970;9.068;2024-02-23T00:45:09;8.60;99.90
4874;DHT22;2451;49.970;9.068;2024-02-23T00:47:34;8.50;99.90
4874;DHT22;2451;49.970;9.068;2024-02-23T00:50:01;8.50;99.90
4874;DHT22;2451;49.970;9.068;2024-02-23T00:52:27;8.50;99.90
4874;DHT22;2451;49.970;9.068;2024-02-23T00:54:52;8.40;99.90
4874;DHT22;2451;49.970;9.068;2024-02-23T00:57:18;8.40;99.90
4874;DHT22;2451;49.970;9.068;2024-02-23T00:59:47;8.40;99.90
4874;DHT22;2451;49.970;9.068;2024-02-23T01:02:12;8.30;99.90
4874;DHT22;2451;49.970;9.068;2024-02-23T01:04:38;8.30;99.90
4874;DHT22;2451;49.970;9.068;2024-02-23T01:07:03;8.30;99.90
4874;DHT22;2451;49.970;9.068;2024-02-23T01:09:29;8.20;99.90
4874;DHT22;2451;49.970;9.068;2024-02-23T01:11:54;8.20;99.90
4874;DHT22;2451;49.970;9.068;2024-02-23T01:14:20;8.20;99.90
4874;DHT22;2451;49.970;9.068;2024-02-23T01:16:45;8.10;99.90
4874;DHT22;2451;49.970;9.068;2024-02-23T01:19:11;8.10;99.90
4874;DHT22;2451;49.970;9.068;2024-02-23T01:21:36;8.10;99.90
4874;DHT22;2451;49.970;9.068;2024-02-23T01:24:02;8.00;99.90
4874;DHT22;2451;49.970;9.068;2024-02-23T01:26:29;8.00;99.90
4874;DHT22;2451;49.970;9.068;2024-02-23T01:28:55;7.90;99.90
4874;DHT22;2451;49.970;9.068;2024-02-23T01:31:20;7.90;99.90
4874;DHT22;2451;49.970;9.068;2024-02-23T01:33:46;7.80;99.90
4874;DHT22;2451;49.970;9.068;2024-02-23T01:36:12;7.80;99.90
4874;DHT22;2451;49.970;9.068;2024-02-23T01:38:38;7.80;99.90
4874;DHT22;2451;49.970;9.068;2024-02-23T01:41:04;7.70;99.90
4874;DHT22;2451;49.970;9.068;2024-02-23T01:43:29;7.70;99.90
4874;DHT22;2451;49.970;9.068;2024-02-23T01:45:55;7.70;99.90
4874;DHT22;2451;49.970;9.068;2024-02-23T01:48:20;7.60;99.90
4874;DHT22;2451;49.970;9.068;2024-02-23T01:50:46;7.60;99.90
4874;DHT22;2451;49.970;9.068;2024-02-23T01:53:12;7.60;99.90
4874;DHT22;2451;49.970;9.068;2024-02-23T01:55:40;7.60;99.90
4874;DHT22;2451;49.970;9.068;2024-02-23T01:58:07;7.60;99.90
4874;DHT22;2451;49.970;9.068;2024-02-23T02:00:34;7.50;99.90
4874;DHT22;2451;49.970;9.068;2024-02-23T02:03:00;7.50;99.90
4874;DHT22;2451;49.970;9.068;2024-02-23T02:05:26;7.50;99.90
4874;DHT22;2451;49.970;9.068;2024-02-23T02:07:53;7.40;99.90
4874;DHT22;2451;49.970;9.068;2024-02-23T02:10:24;7.40;99.90
4874;DHT22;2451;49.970;9.068;2024-02-23T02:12:49;7.40;99.90
4874;DHT22;2451;49.970;9.068;2024-02-23T02:15:15;7.40;99.90
4874;DHT22;2451;49.970;9.068;2024-02-23T02:17:40;7.40;99.90
4874;DHT22;2451;49.970;9.068;2024-02-23T02:20:11;7.40;99.90
4874;DHT22;2451;49.970;9.068;2024-02-23T02:22:37;7.40;99.90
4874;DHT22;2451;49.970;9.068;2024-02-23T02:25:02;7.40;99.90
4874;DHT22;2451;49.970;9.068;2024-02-23T02:27:28;7.40;99.90
4874;DHT22;2451;49.970;9.068;2024-02-23T02:29:54;7.40;99.90
4874;DHT22;2451;49.970;9.068;2024-02-23T02:32:19;7.40;99.90
4874;DHT22;2451;49.970;9.068;2024-02-23T02:34:45;7.40;99.90
4874;DHT22;2451;49.970;9.068;2024-02-23T02:37:10;7.40;99.90
4874;DHT22;2451;49.970;9.068;2024-02-23T02:39:36;7.40;99.90
4874;DHT22;2451;49.970;9.068;2024-02-23T02:42:01;7.30;99.90
4874;DHT22;2451;49.970;9.068;2024-02-23T02:44:27;7.30;99.90
4874;DHT22;2451;49.970;9.068;2024-02-23T02:46:56;7.20;99.90
4874;DHT22;2451;49.970;9.068;2024-02-23T02:49:22;7.20;99.90
4874;DHT22;2451;49.970;9.068;2024-02-23T02:51:47;7.10;99.90
4874;DHT22;2451;49.970;9.068;2024-02-23T02:54:13;7.10;99.90
4874;DHT22;2451;49.970;9.068;2024-02-23T02:56:44;7.10;99.90
4874;DHT22;2451;49.970;9.068;2024-02-23T02:59:12;7.00;99.90
4874;DHT22;2451;49.970;9.068;2024-02-23T03:01:37;7.00;99.90
4874;DHT22;2451;49.970;9.068;2024-02-23T03:04:03;6.90;99.90
4874;DHT22;2451;49.970;9.068;2024-02-23T03:06:28;6.90;99.90
4874;DHT22;2451;49.970;9.068;2024-02-23T03:08:54;6.80;99.90
4874;DHT22;2451;49.970;9.068;2024-02-23T03:11:19;6.80;99.90
4874;DHT22;2451;49.970;9.068;2024-02-23T03:13:45;6.70;99.90
4874;DHT22;2451;49.970;9.068;2024-02-23T03:16:20;6.70;99.90
4874;DHT22;2451;49.970;9.068;2024-02-23T03:19:03;6.70;99.90
4874;DHT22;2451;49.970;9.068;2024-02-23T03:21:29;6.60;99.90
4874;DHT22;2451;49.970;9.068;2024-02-23T03:23:54;6.60;99.90
4874;DHT22;2451;49.970;9.068;2024-02-23T03:26:20;6.50;99.90
4874;DHT22;2451;49.970;9.068;2024-02-23T03:28:45;6.50;99.90
4874;DHT22;2451;49.970;9.068;2024-02-23T03:31:11;6.40;99.90
4874;DHT22;2451;49.970;9.068;2024-02-23T03:33:37;6.40;99.90
4874;DHT22;2451;49.970;9.068;2024-02-23T03:36:03;6.40;99.90
4874;DHT22;2451;49.970;9.068;2024-02-23T03:38:28;6.40;99.90
4874;DHT22;2451;49.970;9.068;2024-02-23T03:40:55;6.40;99.90
4874;DHT22;2451;49.970;9.068;2024-02-23T03:43:20;6.40;99.90
4874;DHT22;2451;49.970;9.068;2024-02-23T03:45:46;6.30;99.90
4874;DHT22;2451;49.970;9.068;2024-02-23T03:48:12;6.30;99.90
4874;DHT22;2451;49.970;9.068;2024-02-23T03:50:37;6.30;99.90
4874;DHT22;2451;49.970;9.068;2024-02-23T03:53:03;6.40;99.90
4874;DHT22;2451;49.970;9.068;2024-02-23T03:55:29;6.40;99.90
4874;DHT22;2451;49.970;9.068;2024-02-23T03:57:54;6.30;99.90
4874;DHT22;2451;49.970;9.068;2024-02-23T04:00:20;6.30;99.90
4874;DHT22;2451;49.970;9.068;2024-02-23T04:02:48;6.30;99.90
4874;DHT22;2451;49.970;9.068;2024-02-23T04:05:14;6.30;99.90
4874;DHT22;2451;49.970;9.068;2024-02-23T04:07:39;6.30;99.90
4874;DHT22;2451;49.970;9.068;2024-02-23T04:10:05;6.30;99.90
4874;DHT22;2451;49.970;9.068;2024-02-23T04:12:31;6.20;99.90
4874;DHT22;2451;49.970;9.068;2024-02-23T04:14:57;6.20;99.90
4874;DHT22;2451;49.970;9.068;2024-02-23T04:17:22;6.20;99.90
4874;DHT22;2451;49.970;9.068;2024-02-23T04:19:48;6.20;99.90
4874;DHT22;2451;49.970;9.068;2024-02-23T04:22:13;6.20;99.90
4874;DHT22;2451;49.970;9.068;2024-02-23T04:24:39;6.10;99.90
4874;DHT22;2451;49.970;9.068;2024-02-23T04:27:06;6.10;99.90
4874;DHT22;2451;49.970;9.068;2024-02-23T04:29:32;6.00;99.90
4874;DHT22;2451;49.970;9.068;2024-02-23T04:31:58;6.00;99.90
4874;DHT22;2451;49.970;9.068;2024-02-23T04:34:23;6.00;99.90
4874;DHT22;2451;49.970;9.068;2024-02-23T04:36:49;5.90;99.90
4874;DHT22;2451;49.970;9.068;2024-02-23T04:39:14;5.90;99.90
4874;DHT22;2451;49.970;9.068;2024-02-23T04:41:40;5.90;99.90
4874;DHT22;2451;49.970;9.068;2024-02-23T04:44:23;6.00;99.90
4874;DHT22;2451;49.970;9.068;2024-02-23T04:46:49;5.90;99.90
4874;DHT22;2451;49.970;9.068;2024-02-23T04:49:14;5.90;99.90
4874;DHT22;2451;49.970;9.068;2024-02-23T04:51:40;5.90;99.90
4874;DHT22;2451;49.970;9.068;2024-02-23T04:54:05;5.90;99.90
4874;DHT22;2451;49.970;9.068;2024-02-23T04:56:31;5.90;99.90
4874;DHT22;2451;49.970;9.068;2024-02-23T04:58:58;5.90;99.90
4874;DHT22;2451;49.970;9.068;2024-02-23T05:01:24;5.90;99.90
4874;DHT22;2451;49.970;9.068;2024-02-23T05:03:49;5.90;99.90
4874;DHT22;2451;49.970;9.068;2024-02-23T05:06:15;5.90;99.90
4874;DHT22;2451;49.970;9.068;2024-02-23T05:08:40;5.90;99.90
4874;DHT22;2451;49.970;9.068;2024-02-23T05:11:06;5.90;99.90
4874;DHT22;2451;49.970;9.068;2024-02-23T05:13:32;5.90;99.90
4874;DHT22;2451;49.970;9.068;2024-02-23T05:15:57;6.00;99.90
4874;DHT22;2451;49.970;9.068;2024-02-23T05:18:23;5.90;99.90
4874;DHT22;2451;49.970;9.068;2024-02-23T05:20:48;5.90;99.90
4874;DHT22;2451;49.970;9.068;2024-02-23T05:23:14;5.90;99.90
4874;DHT22;2451;49.970;9.068;2024-02-23T05:25:43;5.90;99.90
4874;DHT22;2451;49.970;9.068;2024-02-23T05:28:08;5.90;99.90
4874;DHT22;2451;49.970;9.068;2024-02-23T05:30:34;5.80;99.90
4874;DHT22;2451;49.970;9.068;2024-02-23T05:32:59;5.80;99.90
4874;DHT22;2451;49.970;9.068;2024-02-23T05:35:28;5.80;99.90
4874;DHT22;2451;49.970;9.068;2024-02-23T05:37:54;5.80;99.90
4874;DHT22;2451;49.970;9.068;2024-02-23T05:40:20;5.80;99.90
4874;DHT22;2451;49.970;9.068;2024-02-23T05:42:46;5.80;99.90
4874;DHT22;2451;49.970;9.068;2024-02-23T05:45:11;5.80;99.90
4874;DHT22;2451;49.970;9.068;2024-02-23T05:47:38;5.80;99.90
4874;DHT22;2451;49.970;9.068;2024-02-23T05:50:04;5.80;99.90
4874;DHT22;2451;49.970;9.068;2024-02-23T05:52:33;5.80;99.90
4874;DHT22;2451;49.970;9.068;2024-02-23T05:54:59;5.80;99.90
4874;DHT22;2451;49.970;9.068;2024-02-23T05:57:28;5.70;99.90
4874;DHT22;2451;49.970;9.068;2024-02-23T05:59:54;5.80;99.90
4874;DHT22;2451;49.970;9.068;2024-02-23T06:02:21;5.70;99.90
4874;DHT22;2451;49.970;9.068;2024-02-23T06:04:47;5.80;99.90
4874;DHT22;2451;49.970;9.068;2024-02-23T06:07:13;5.80;99.90
4874;DHT22;2451;49.970;9.068;2024-02-23T06:09:38;5.80;99.90
4874;DHT22;2451;49.970;9.068;2024-02-23T06:12:05;5.80;99.90
4874;DHT22;2451;49.970;9.068;2024-02-23T06:14:31;5.80;99.90
4874;DHT22;2451;49.970;9.068;2024-02-23T06:16:56;5.80;99.90
4874;DHT22;2451;49.970;9.068;2024-02-23T06:19:22;5.90;99.90
4874;DHT22;2451;49.970;9.068;2024-02-23T06:21:48;5.90;99.90
4874;DHT22;2451;49.970;9.068;2024-02-23T06:24:14;6.00;99.90
4874;DHT22;2451;49.970;9.068;2024-02-23T06:26:40;5.90;99.90
4874;DHT22;2451;49.970;9.068;2024-02-23T06:29:05;5.90;99.90
4874;DHT22;2451;49.970;9.068;2024-02-23T06:31:31;5.90;99.90
4874;DHT22;2451;49.970;9.068;2024-02-23T06:33:59;5.90;99.90
4874;DHT22;2451;49.970;9.068;2024-02-23T06:36:25;6.00;99.90
4874;DHT22;2451;49.970;9.068;2024-02-23T06:38:51;6.00;99.90
4874;DHT22;2451;49.970;9.068;2024-02-23T06:41:16;6.00;99.90
4874;DHT22;2451;49.970;9.068;2024-02-23T06:43:42;6.10;99.90
4874;DHT22;2451;49.970;9.068;2024-02-23T06:46:08;6.10;99.90
4874;DHT22;2451;49.970;9.068;2024-02-23T06:48:38;6.10;99.90
4874;DHT22;2451;49.970;9.068;2024-02-23T06:51:04;6.10;99.90
4874;DHT22;2451;49.970;9.068;2024-02-23T06:53:30;6.20;99.90
4874;DHT22;2451;49.970;9.068;2024-02-23T06:55:56;6.20;99.90
4874;DHT22;2451;49.970;9.068;2024-02-23T06:58:21;6.30;99.90
4874;DHT22;2451;49.970;9.068;2024-02-23T07:00:47;6.30;99.90
4874;DHT22;2451;49.970;9.068;2024-02-23T07:03:13;6.30;99.90
4874;DHT22;2451;49.970;9.068;2024-02-23T07:05:40;6.30;99.90
4874;DHT22;2451;49.970;9.068;2024-02-23T07:08:07;6.30;99.90
4874;DHT22;2451;49.970;9.068;2024-02-23T07:10:33;6.40;99.90
4874;DHT22;2451;49.970;9.068;2024-02-23T07:12:59;6.40;99.90
4874;DHT22;2451;49.970;9.068;2024-02-23T07:15:25;6.40;99.90
4874;DHT22;2451;49.970;9.068;2024-02-23T07:17:51;6.40;99.90
4874;DHT22;2451;49.970;9.068;2024-02-23T07:20:17;6.40;99.90
4874;DHT22;2451;49.970;9.068;2024-02-23T07:22:46;6.40;99.90
4874;DHT22;2451;49.970;9.068;2024-02-23T07:25:15;6.50;99.90
4874;DHT22;2451;49.970;9.068;2024-02-23T07:27:41;6.50;99.90
4874;DHT22;2451;49.970;9.068;2024-02-23T07:30:07;6.60;99.90
4874;DHT22;2451;49.970;9.068;2024-02-23T07:32:33;6.60;99.90
4874;DHT22;2451;49.970;9.068;2024-02-23T07:34:58;6.60;99.90
4874;DHT22;2451;49.970;9.068;2024-02-23T07:37:26;6.60;99.90
4874;DHT22;2451;49.970;9.068;2024-02-23T07:39:52;6.70;99.90
4874;DHT22;2451;49.970;9.068;2024-02-23T07:42:18;6.70;99.90
4874;DHT22;2451;49.970;9.068;2024-02-23T07:44:44;6.70;99.90
4874;DHT22;2451;49.970;9.068;2024-02-23T07:47:10;6.70;99.90
4874;DHT22;2451;49.970;9.068;2024-02-23T07:49:36;6.70;99.90
4874;DHT22;2451;49.970;9.068;2024-02-23T07:52:02;6.80;99.90
4874;DHT22;2451;49.970;9.068;2024-02-23T07:54:28;6.90;99.90
4874;DHT22;2451;49.970;9.068;2024-02-23T07:56:53;7.00;99.90
4874;DHT22;2451;49.970;9.068;2024-02-23T07:59:19;7.20;99.90
4874;DHT22;2451;49.970;9.068;2024-02-23T08:01:45;7.40;99.90
4874;DHT22;2451;49.970;9.068;2024-02-23T08:04:10;7.40;99.90
4874;DHT22;2451;49.970;9.068;2024-02-23T08:06:36;7.60;99.90
4874;DHT22;2451;49.970;9.068;2024-02-23T08:09:01;7.70;99.90
4874;DHT22;2451;49.970;9.068;2024-02-23T08:11:28;7.80;99.90
4874;DHT22;2451;49.970;9.068;2024-02-23T08:13:53;7.80;99.90
4874;DHT22;2451;49.970;9.068;2024-02-23T08:16:19;7.80;99.90
4874;DHT22;2451;49.970;9.068;2024-02-23T08:18:44;8.10;99.90
4874;DHT22;2451;49.970;9.068;2024-02-23T08:21:10;8.30;99.90
4874;DHT22;2451;49.970;9.068;2024-02-23T08:23:36;8.70;99.90
4874;DHT22;2451;49.970;9.068;2024-02-23T08:26:02;9.30;99.90
4874;DHT22;2451;49.970;9.068;2024-02-23T08:28:28;9.80;99.90
4874;DHT22;2451;49.970;9.068;2024-02-23T08:30:53;10.30;99.90
4874;DHT22;2451;49.970;9.068;2024-02-23T08:33:19;10.50;99.90
4874;DHT22;2451;49.970;9.068;2024-02-23T08:35:45;10.50;99.90
4874;DHT22;2451;49.970;9.068;2024-02-23T08:38:12;10.50;99.90
4874;DHT22;2451;49.970;9.068;2024-02-23T08:40:37;10.30;99.90
4874;DHT22;2451;49.970;9.068;2024-02-23T08:43:03;10.00;99.90
4874;DHT22;2451;49.970;9.068;2024-02-23T08:45:29;9.50;99.90
4874;DHT22;2451;49.970;9.068;2024-02-23T08:47:54;9.20;99.90
4874;DHT22;2451;49.970;9.068;2024-02-23T08:50:20;9.00;99.90
4874;DHT22;2451;49.970;9.068;2024-02-23T08:52:45;8.70;99.90
4874;DHT22;2451;49.970;9.068;2024-02-23T08:55:11;8.40;99.90
4874;DHT22;2451;49.970;9.068;2024-02-23T08:57:37;8.20;99.90
4874;DHT22;2451;49.970;9.068;2024-02-23T09:00:04;8.20;99.90
4874;DHT22;2451;49.970;9.068;2024-02-23T09:02:30;8.10;99.90
4874;DHT22;2451;49.970;9.068;2024-02-23T09:04:56;8.10;99.90
4874;DHT22;2451;49.970;9.068;2024-02-23T09:07:21;8.20;99.90
4874;DHT22;2451;49.970;9.068;2024-02-23T09:09:47;8.20;99.90
4874;DHT22;2451;49.970;9.068;2024-02-23T09:12:14;8.30;99.90
4874;DHT22;2451;49.970;9.068;2024-02-23T09:14:42;8.40;99.90
4874;DHT22;2451;49.970;9.068;2024-02-23T09:17:09;8.50;99.90
4874;DHT22;2451;49.970;9.068;2024-02-23T09:19:35;8.60;99.90
4874;DHT22;2451;49.970;9.068;2024-02-23T09:22:02;8.60;99.90
4874;DHT22;2451;49.970;9.068;2024-02-23T09:24:28;8.60;99.90
4874;DHT22;2451;49.970;9.068;2024-02-23T09:26:53;8.60;99.90
4874;DHT22;2451;49.970;9.068;2024-02-23T09:29:19;8.80;99.90
4874;DHT22;2451;49.970;9.068;2024-02-23T09:31:44;8.90;99.90
4874;DHT22;2451;49.970;9.068;2024-02-23T09:34:10;9.10;99.90
4874;DHT22;2451;49.970;9.068;2024-02-23T09:36:36;9.10;99.90
4874;DHT22;2451;49.970;9.068;2024-02-23T09:39:01;9.10;99.90
4874;DHT22;2451;49.970;9.068;2024-02-23T09:41:29;9.10;99.90
4874;DHT22;2451;49.970;9.068;2024-02-23T09:43:58;9.10;99.90
4874;DHT22;2451;49.970;9.068;2024-02-23T09:46:23;9.00;99.90
4874;DHT22;2451;49.970;9.068;2024-02-23T09:48:50;8.70;99.90
4874;DHT22;2451;49.970;9.068;2024-02-23T09:51:16;8.70;99.90
4874;DHT22;2451;49.970;9.068;2024-02-23T09:53:43;8.70;99.90
4874;DHT22;2451;49.970;9.068;2024-02-23T09:56:09;8.70;99.90
4874;DHT22;2451;49.970;9.068;2024-02-23T09:58:39;8.70;99.90
4874;DHT22;2451;49.970;9.068;2024-02-23T10:01:07;8.80;99.90
4874;DHT22;2451;49.970;9.068;2024-02-23T10:03:32;8.80;99.90
4874;DHT22;2451;49.970;9.068;2024-02-23T10:05:58;9.00;99.90
4874;DHT22;2451;49.970;9.068;2024-02-23T10:08:25;9.00;99.90
4874;DHT22;2451;49.970;9.068;2024-02-23T10:10:50;8.80;99.90
4874;DHT22;2451;49.970;9.068;2024-02-23T10:13:20;8.80;99.90
4874;DHT22;2451;49.970;9.068;2024-02-23T10:15:47;8.90;99.90
4874;DHT22;2451;49.970;9.068;2024-02-23T10:18:12;8.90;99.90
4874;DHT22;2451;49.970;9.068;2024-02-23T10:20:38;8.90;99.90
4874;DHT22;2451;49.970;9.068;2024-02-23T10:23:04;8.90;99.90
4874;DHT22;2451;49.970;9.068;2024-02-23T10:25:32;8.80;99.90
4874;DHT22;2451;49.970;9.068;2024-02-23T10:27:58;8.90;99.90
4874;DHT22;2451;49.970;9.068;2024-02-23T10:30:26;8.80;99.90
4874;DHT22;2451;49.970;9.068;2024-02-23T10:32:55;8.80;99.90
4874;DHT22;2451;49.970;9.068;2024-02-23T10:35:22;8.70;99.90
4874;DHT22;2451;49.970;9.068;2024-02-23T10:37:49;8.70;99.90
4874;DHT22;2451;49.970;9.068;2024-02-23T10:40:17;8.70;99.90
4874;DHT22;2451;49.970;9.068;2024-02-23T10:42:47;8.70;99.90
4874;DHT22;2451;49.970;9.068;2024-02-23T10:45:17;8.70;99.90
4874;DHT22;2451;49.970;9.068;2024-02-23T10:47:44;8.70;99.90
4874;DHT22;2451;49.970;9.068;2024-02-23T10:50:10;8.70;99.90
4874;DHT22;2451;49.970;9.068;2024-02-23T10:52:42;8.70;99.90
4874;DHT22;2451;49.970;9.068;2024-02-23T10:55:14;8.60;99.90
4874;DHT22;2451;49.970;9.068;2024-02-23T10:57:39;8.60;99.90
4874;DHT22;2451;49.970;9.068;2024-02-23T11:00:07;8.70;99.90
4874;DHT22;2451;49.970;9.068;2024-02-23T11:02:41;8.60;99.90
4874;DHT22;2451;49.970;9.068;2024-02-23T11:05:09;8.70;99.90
4874;DHT22;2451;49.970;9.068;2024-02-23T11:07:38;8.70;99.90
4874;DHT22;2451;49.970;9.068;2024-02-23T11:10:05;8.80;99.90
4874;DHT22;2451;49.970;9.068;2024-02-23T11:12:30;8.80;99.90
4874;DHT22;2451;49.970;9.068;2024-02-23T11:14:57;8.80;99.90
4874;DHT22;2451;49.970;9.068;2024-02-23T11:17:26;8.90;99.90
4874;DHT22;2451;49.970;9.068;2024-02-23T11:19:54;8.90;99.90
4874;DHT22;2451;49.970;9.068;2024-02-23T11:22:27;8.90;99.90
4874;DHT22;2451;49.970;9.068;2024-02-23T11:24:59;9.10;99.90
4874;DHT22;2451;49.970;9.068;2024-02-23T11:27:30;9.20;99.90
4874;DHT22;2451;49.970;9.068;2024-02-23T11:30:16;9.30;99.90
4874;DHT22;2451;49.970;9.068;2024-02-23T11:32:46;9.30;99.90
4874;DHT22;2451;49.970;9.068;2024-02-23T11:35:16;9.40;99.90
4874;DHT22;2451;49.970;9.068;2024-02-23T11:38:03;9.40;99.90
4874;DHT22;2451;49.970;9.068;2024-02-23T11:40:31;9.30;99.90
4874;DHT22;2451;49.970;9.068;2024-02-23T11:42:58;9.30;99.90
4874;DHT22;2451;49.970;9.068;2024-02-23T11:45:25;9.40;99.90
4874;DHT22;2451;49.970;9.068;2024-02-23T11:47:53;9.50;99.90
4874;DHT22;2451;49.970;9.068;2024-02-23T11:50:18;9.50;99.90
4874;DHT22;2451;49.970;9.068;2024-02-23T11:52:46;9.50;99.90
4874;DHT22;2451;49.970;9.068;2024-02-23T11:55:12;9.50;99.90
4874;DHT22;2451;49.970;9.068;2024-02-23T11:57:38;9.60;99.90
4874;DHT22;2451;49.970;9.068;2024-02-23T12:00:05;9.70;99.90
4874;DHT22;2451;49.970;9.068;2024-02-23T12:02:33;9.80;99.90
4874;DHT22;2451;49.970;9.068;2024-02-23T12:04:58;9.80;99.90
4874;DHT22;2451;49.970;9.068;2024-02-23T12:07:24;9.90;99.90
4874;DHT22;2451;49.970;9.068;2024-02-23T12:09:51;9.80;99.90
4874;DHT22;2451;49.970;9.068;2024-02-23T12:12:17;9.80;99.90
4874;DHT22;2451;49.970;9.068;2024-02-23T12:14:43;9.70;99.90
4874;DHT22;2451;49.970;9.068;2024-02-23T12:17:08;9.70;99.90
4874;DHT22;2451;49.970;9.068;2024-02-23T12:19:43;9.80;99.90
4874;DHT22;2451;49.970;9.068;2024-02-23T12:22:10;9.90;99.90
4874;DHT22;2451;49.970;9.068;2024-02-23T12:24:36;10.00;99.90
4874;DHT22;2451;49.970;9.068;2024-02-23T12:27:02;10.00;99.90
4874;DHT22;2451;49.970;9.068;2024-02-23T12:29:28;10.10;99.90
4874;DHT22;2451;49.970;9.068;2024-02-23T12:32:04;10.10;99.90
4874;DHT22;2451;49.970;9.068;2024-02-23T12:34:30;10.10;99.90
4874;DHT22;2451;49.970;9.068;2024-02-23T12:36:55;10.20;99.90
4874;DHT22;2451;49.970;9.068;2024-02-23T12:39:21;10.20;99.90
4874;DHT22;2451;49.970;9.068;2024-02-23T12:41:46;10.30;99.90
4874;DHT22;2451;49.970;9.068;2024-02-23T12:44:12;10.30;99.90
4874;DHT22;2451;49.970;9.068;2024-02-23T12:46:37;10.30;99.90
4874;DHT22;2451;49.970;9.068;2024-02-23T12:49:03;10.30;99.90
4874;DHT22;2451;49.970;9.068;2024-02-23T12:51:29;10.30;99.90
4874;DHT22;2451;49.970;9.068;2024-02-23T12:53:54;10.20;99.90
4874;DHT22;2451;49.970;9.068;2024-02-23T12:56:20;10.20;99.90
4874;DHT22;2451;49.970;9.068;2024-02-23T12:58:46;10.20;99.90
4874;DHT22;2451;49.970;9.068;2024-02-23T13:01:11;10.20;99.90
4874;DHT22;2451;49.970;9.068;2024-02-23T13:03:38;10.20;99.90
4874;DHT22;2451;49.970;9.068;2024-02-23T13:06:06;10.20;99.90
4874;DHT22;2451;49.970;9.068;2024-02-23T13:08:32;10.20;99.90
4874;DHT22;2451;49.970;9.068;2024-02-23T13:10:58;10.20;99.90
4874;DHT22;2451;49.970;9.068;2024-02-23T13:13:24;10.10;99.90
4874;DHT22;2451;49.970;9.068;2024-02-23T13:15:51;10.10;99.90
4874;DHT22;2451;49.970;9.068;2024-02-23T13:18:17;10.10;99.90
4874;DHT22;2451;49.970;9.068;2024-02-23T13:20:44;10.10;99.90
4874;DHT22;2451;49.970;9.068;2024-02-23T13:23:11;10.10;99.90
4874;DHT22;2451;49.970;9.068;2024-02-23T13:25:38;10.20;99.90
4874;DHT22;2451;49.970;9.068;2024-02-23T13:28:04;10.10;99.90
4874;DHT22;2451;49.970;9.068;2024-02-23T13:30:30;10.10;99.90
4874;DHT22;2451;49.970;9.068;2024-02-23T13:32:56;10.10;99.90
4874;DHT22;2451;49.970;9.068;2024-02-23T13:35:22;10.00;99.90
4874;DHT22;2451;49.970;9.068;2024-02-23T13:37:47;10.00;99.90
4874;DHT22;2451;49.970;9.068;2024-02-23T13:40:13;9.90;99.90
4874;DHT22;2451;49.970;9.068;2024-02-23T13:42:39;9.90;99.90
4874;DHT22;2451;49.970;9.068;2024-02-23T13:45:06;9.90;99.90
4874;DHT22;2451;49.970;9.068;2024-02-23T13:47:32;10.10;99.90
4874;DHT22;2451;49.970;9.068;2024-02-23T13:49:58;10.30;99.90
4874;DHT22;2451;49.970;9.068;2024-02-23T13:52:23;10.40;99.90
4874;DHT22;2451;49.970;9.068;2024-02-23T13:54:49;10.30;99.90
4874;DHT22;2451;49.970;9.068;2024-02-23T13:57:14;10.10;99.90
4874;DHT22;2451;49.970;9.068;2024-02-23T13:59:40;10.00;99.90
4874;DHT22;2451;49.970;9.068;2024-02-23T14:02:05;9.90;99.90
4874;DHT22;2451;49.970;9.068;2024-02-23T14:04:31;9.80;99.90
4874;DHT22;2451;49.970;9.068;2024-02-23T14:06:57;9.70;99.90
4874;DHT22;2451;49.970;9.068;2024-02-23T14:09:22;9.80;99.90
4874;DHT22;2451;49.970;9.068;2024-02-23T14:11:48;9.80;99.90
4874;DHT22;2451;49.970;9.068;2024-02-23T14:14:14;9.90;99.90
4874;DHT22;2451;49.970;9.068;2024-02-23T14:16:40;10.40;99.90
4874;DHT22;2451;49.970;9.068;2024-02-23T14:19:05;10.70;99.90
4874;DHT22;2451;49.970;9.068;2024-02-23T14:21:31;10.80;99.90
4874;DHT22;2451;49.970;9.068;2024-02-23T14:23:56;10.60;99.90
4874;DHT22;2451;49.970;9.068;2024-02-23T14:26:22;10.40;99.90
4874;DHT22;2451;49.970;9.068;2024-02-23T14:28:48;10.30;99.90
4874;DHT22;2451;49.970;9.068;2024-02-23T14:31:14;10.60;99.90
4874;DHT22;2451;49.970;9.068;2024-02-23T14:33:40;10.60;99.90
4874;DHT22;2451;49.970;9.068;2024-02-23T14:36:06;10.80;99.90
4874;DHT22;2451;49.970;9.068;2024-02-23T14:38:31;10.70;99.90
4874;DHT22;2451;49.970;9.068;2024-02-23T14:40:57;10.40;99.90
4874;DHT22;2451;49.970;9.068;2024-02-23T14:43:23;10.10;99.90
4874;DHT22;2451;49.970;9.068;2024-02-23T14:45:49;9.80;99.90
4874;DHT22;2451;49.970;9.068;2024-02-23T14:48:16;9.60;99.90
4874;DHT22;2451;49.970;9.068;2024-02-23T14:50:42;9.60;99.90
4874;DHT22;2451;49.970;9.068;2024-02-23T14:53:08;9.50;99.90
4874;DHT22;2451;49.970;9.068;2024-02-23T14:55:34;9.40;99.90
4874;DHT22;2451;49.970;9.068;2024-02-23T14:58:00;9.30;99.90
4874;DHT22;2451;49.970;9.068;2024-02-23T15:00:25;9.20;99.90
4874;DHT22;2451;49.970;9.068;2024-02-23T15:02:52;9.10;99.90
4874;DHT22;2451;49.970;9.068;2024-02-23T15:05:18;9.00;99.90
4874;DHT22;2451;49.970;9.068;2024-02-23T15:07:43;8.90;99.90
4874;DHT22;2451;49.970;9.068;2024-02-23T15:10:09;8.80;99.90
4874;DHT22;2451;49.970;9.068;2024-02-23T15:12:35;8.70;99.90
4874;DHT22;2451;49.970;9.068;2024-02-23T15:15:01;8.70;99.90
4874;DHT22;2451;49.970;9.068;2024-02-23T15:17:26;8.70;99.90
4874;DHT22;2451;49.970;9.068;2024-02-23T15:19:52;8.60;99.90
4874;DHT22;2451;49.970;9.068;2024-02-23T15:22:17;8.60;99.90
4874;DHT22;2451;49.970;9.068;2024-02-23T15:24:44;8.50;99.90
4874;DHT22;2451;49.970;9.068;2024-02-23T15:27:15;8.50;99.90
4874;DHT22;2451;49.970;9.068;2024-02-23T15:29:41;8.50;99.90
4874;DHT22;2451;49.970;9.068;2024-02-23T15:32:08;8.50;99.90
4874;DHT22;2451;49.970;9.068;2024-02-23T15:34:34;8.50;99.90
4874;DHT22;2451;49.970;9.068;2024-02-23T15:36:59;8.40;99.90
4874;DHT22;2451;49.970;9.068;2024-02-23T15:39:25;8.40;99.90
4874;DHT22;2451;49.970;9.068;2024-02-23T15:41:50;8.40;99.90
4874;DHT22;2451;49.970;9.068;2024-02-23T15:44:16;8.30;99.90
4874;DHT22;2451;49.970;9.068;2024-02-23T15:46:41;8.30;99.90
4874;DHT22;2451;49.970;9.068;2024-02-23T15:49:07;8.30;99.90
4874;DHT22;2451;49.970;9.068;2024-02-23T15:51:33;8.30;99.90
4874;DHT22;2451;49.970;9.068;2024-02-23T15:54:02;8.30;99.90
4874;DHT22;2451;49.970;9.068;2024-02-23T15:56:28;8.30;99.90
4874;DHT22;2451;49.970;9.068;2024-02-23T15:58:53;8.30;99.90
4874;DHT22;2451;49.970;9.068;2024-02-23T16:01:20;8.20;99.90
4874;DHT22;2451;49.970;9.068;2024-02-23T16:03:45;8.30;99.90
4874;DHT22;2451;49.970;9.068;2024-02-23T16:06:11;8.20;99.90
4874;DHT22;2451;49.970;9.068;2024-02-23T16:08:44;8.30;99.90